Terminal Aerodrome Forecast
Issued by NWS Sterling, VA

Current Version | Previous Version | Graphics & Text | Print | Product List | Glossary On
Versions: 1 2 3 4 5 6 7 8 9 10 11 12 13 14 15 16 17 18
651
FTUS41 KLWX 261725
TAFMRB
TAF
KMRB 261725Z 2618/2718 29016G25KT P6SM BKN040
     FM262300 30010KT P6SM SCT050
     FM270200 VRB03KT P6SM SCT200
     FM270900 VRB03KT 6SM -SHRA BKN050 OVC130
     FM271600 04005KT P6SM BKN050 BKN130=

USA.gov is the U.S. government's official web portal to all federal, state and local government web resources and services.